Time;durP1;ratioP1;P1;durP2;ratioP2;P2;SDS_P1;SDS_P2;PMS_P1;PMS_P2;Temp;Humidity;BMP_temperature;BMP_pressure;BME280_temperature;BME280_humidity;BME280_pressure;Samples;Min_cycle;Max_cycle;Signal;HPM_P1;HPM_P2
2021/10/05 00:00:38;;;;;;;7.10;1.70;;;10.20;99.90;;;;;;4861928;29;20052;-94
2021/10/05 00:03:05;;;;;;;7.75;1.75;;;10.20;99.90;;;;;;4865456;29;20493;-95
2021/10/05 00:05:32;;;;;;;4.90;1.50;;;10.20;99.90;;;;;;4841163;29;20060;-96
2021/10/05 00:07:57;;;;;;;4.13;1.55;;;10.10;99.90;;;;;;4855169;29;20087;-95
2021/10/05 00:10:23;;;;;;;5.80;1.30;;;10.10;99.90;;;;;;4847086;29;20045;-96
2021/10/05 00:12:50;;;;;;;4.53;1.55;;;10.10;99.90;;;;;;4831223;29;20509;-94
2021/10/05 00:15:16;;;;;;;8.23;1.52;;;10.10;99.90;;;;;;4868482;29;20399;-96
2021/10/05 00:17:42;;;;;;;8.60;1.48;;;10.10;99.90;;;;;;4835028;29;20059;-96
2021/10/05 00:20:10;;;;;;;5.22;1.48;;;10.10;99.90;;;;;;4861539;29;20057;-95
2021/10/05 00:22:36;;;;;;;7.45;1.52;;;10.10;99.90;;;;;;4846508;29;20049;-96
2021/10/05 00:25:02;;;;;;;4.57;1.63;;;10.10;99.90;;;;;;4861608;29;20056;-94
2021/10/05 00:27:28;;;;;;;12.27;2.10;;;10.10;99.90;;;;;;4861418;29;20053;-96
2021/10/05 00:29:54;;;;;;;5.22;1.80;;;10.10;99.90;;;;;;4846228;29;20083;-93
2021/10/05 00:32:20;;;;;;;6.07;2.20;;;10.00;99.90;;;;;;4832805;29;20057;-95
2021/10/05 00:34:45;;;;;;;5.80;1.88;;;9.90;99.90;;;;;;4858594;29;20045;-96
2021/10/05 00:37:11;;;;;;;8.45;1.90;;;9.90;99.90;;;;;;4849088;29;20053;-94
2021/10/05 00:39:37;;;;;;;7.55;2.22;;;9.90;99.90;;;;;;4848531;29;20088;-95
2021/10/05 00:42:04;;;;;;;15.23;2.72;;;9.90;99.90;;;;;;4845816;29;20057;-96
2021/10/05 00:44:31;;;;;;;7.18;2.28;;;9.80;99.90;;;;;;4860996;29;20220;-96
2021/10/05 00:47:05;;;;;;;6.13;2.03;;;9.80;99.90;;;;;;4861596;29;20076;-96
2021/10/05 00:49:31;;;;;;;11.95;2.20;;;9.70;99.90;;;;;;4860948;29;20057;-96
2021/10/05 00:51:59;;;;;;;7.35;3.00;;;9.70;99.90;;;;;;4849094;29;20113;-96
2021/10/05 00:54:25;;;;;;;6.32;2.33;;;9.70;99.90;;;;;;4848001;29;20085;-96
2021/10/05 00:56:51;;;;;;;11.20;2.22;;;9.60;99.90;;;;;;4848486;29;20045;-96
2021/10/05 00:59:17;;;;;;;6.88;2.53;;;9.60;99.90;;;;;;4834066;29;20055;-96
2021/10/05 01:01:43;;;;;;;11.77;3.38;;;9.70;99.90;;;;;;4859144;29;20049;-96
2021/10/05 01:04:10;;;;;;;6.55;2.35;;;9.60;99.90;;;;;;4861253;29;20041;-96
2021/10/05 01:06:35;;;;;;;5.30;2.30;;;9.70;99.90;;;;;;4857760;29;20101;-96
2021/10/05 01:09:01;;;;;;;5.60;2.40;;;9.70;99.90;;;;;;4845199;29;20555;-93
2021/10/05 01:11:27;;;;;;;8.73;2.47;;;9.70;99.90;;;;;;4860137;29;20049;-95
2021/10/05 01:13:53;;;;;;;6.40;2.10;;;9.60;99.90;;;;;;4836831;29;20041;-94
2021/10/05 01:16:19;;;;;;;11.48;2.65;;;9.60;99.90;;;;;;4830722;29;20057;-95
2021/10/05 01:18:48;;;;;;;5.05;2.22;;;9.60;99.90;;;;;;4845995;29;20096;-96
2021/10/05 01:21:14;;;;;;;5.60;2.38;;;9.60;99.90;;;;;;4830019;29;20049;-94
2021/10/05 01:23:39;;;;;;;5.03;2.85;;;9.50;99.90;;;;;;4844932;29;20047;-96
2021/10/05 01:26:05;;;;;;;3.10;2.33;;;9.50;99.90;;;;;;4845726;29;20056;-95
2021/10/05 01:28:31;;;;;;;10.55;3.28;;;9.40;99.90;;;;;;4850325;29;20485;-94
2021/10/05 01:30:58;;;;;;;5.22;2.50;;;9.40;99.90;;;;;;4869487;29;20135;-95
2021/10/05 01:33:26;;;;;;;6.65;2.58;;;9.30;99.90;;;;;;4849035;29;20580;-95
2021/10/05 01:35:53;;;;;;;4.80;2.72;;;9.30;99.90;;;;;;4849352;29;20045;-95
2021/10/05 01:38:19;;;;;;;5.50;2.75;;;9.20;99.90;;;;;;4864118;29;20047;-93
2021/10/05 01:40:44;;;;;;;10.45;2.90;;;9.20;99.90;;;;;;4849602;29;20132;-94
2021/10/05 01:43:10;;;;;;;4.13;2.30;;;9.20;99.90;;;;;;4845235;29;20136;-94
2021/10/05 01:45:40;;;;;;;4.50;2.50;;;9.20;99.90;;;;;;4848901;29;20136;-94
2021/10/05 01:48:07;;;;;;;5.72;2.75;;;9.10;99.90;;;;;;4865308;29;20065;-93
2021/10/05 01:50:34;;;;;;;4.15;2.58;;;9.10;99.90;;;;;;4848415;29;20481;-96
2021/10/05 01:53:01;;;;;;;8.30;2.90;;;9.10;99.90;;;;;;4849318;29;20404;-96
2021/10/05 01:55:26;;;;;;;9.23;2.83;;;9.10;99.90;;;;;;4834539;29;20132;-95
2021/10/05 01:57:52;;;;;;;5.85;3.47;;;9.10;99.90;;;;;;4818852;29;20140;-95
2021/10/05 02:00:18;;;;;;;5.47;3.05;;;9.00;99.90;;;;;;4818239;29;20500;-93
2021/10/05 02:02:44;;;;;;;9.80;3.28;;;9.00;99.90;;;;;;4848929;29;20081;-94
2021/10/05 02:05:10;;;;;;;3.92;2.97;;;9.00;99.90;;;;;;4833182;29;20056;-94
2021/10/05 02:07:36;;;;;;;9.95;3.15;;;9.00;99.90;;;;;;4832728;29;20049;-95
2021/10/05 02:10:04;;;;;;;13.13;3.00;;;8.90;99.90;;;;;;4864278;29;20049;-94
2021/10/05 02:12:30;;;;;;;10.00;3.20;;;8.90;99.90;;;;;;4847995;29;20143;-95
2021/10/05 02:14:56;;;;;;;3.92;2.75;;;8.90;99.90;;;;;;4864734;29;20127;-95
2021/10/05 02:17:21;;;;;;;3.22;2.70;;;8.80;99.90;;;;;;4864708;29;20053;-95
2021/10/05 02:19:47;;;;;;;8.43;3.58;;;8.90;99.90;;;;;;4852851;29;20582;-95
2021/10/05 02:22:13;;;;;;;7.32;2.75;;;8.90;99.90;;;;;;4875120;29;20044;-96
2021/10/05 02:24:41;;;;;;;15.05;3.38;;;8.90;99.90;;;;;;4837684;29;20056;-96
2021/10/05 02:27:07;;;;;;;4.40;2.85;;;8.80;99.90;;;;;;4857442;29;20056;-96
2021/10/05 02:29:36;;;;;;;5.90;2.60;;;8.80;99.90;;;;;;4863751;29;20049;-96
2021/10/05 02:32:07;;;;;;;6.10;3.28;;;8.80;99.90;;;;;;4834094;29;20135;-94
2021/10/05 02:34:34;;;;;;;3.40;2.70;;;8.80;99.90;;;;;;4863829;29;20055;-95
2021/10/05 02:36:59;;;;;;;4.13;3.40;;;8.80;99.90;;;;;;4849214;29;20052;-96
2021/10/05 02:39:25;;;;;;;3.10;2.80;;;8.80;99.90;;;;;;4862917;29;20168;-94
2021/10/05 02:41:51;;;;;;;6.65;3.28;;;8.80;99.90;;;;;;4848988;29;20048;-96
2021/10/05 02:44:17;;;;;;;6.20;3.15;;;8.80;99.90;;;;;;4857796;29;20048;-96
2021/10/05 02:46:42;;;;;;;7.50;3.40;;;8.80;99.90;;;;;;4861310;29;20100;-94
2021/10/05 02:49:08;;;;;;;4.22;2.97;;;8.80;99.90;;;;;;4849736;29;20145;-95
2021/10/05 02:51:34;;;;;;;5.50;3.00;;;8.80;99.90;;;;;;4863091;29;20068;-94
2021/10/05 02:54:00;;;;;;;4.40;3.00;;;8.80;99.90;;;;;;4863888;29;20049;-96
2021/10/05 02:56:26;;;;;;;8.82;3.42;;;8.80;99.90;;;;;;4863413;29;20072;-95
2021/10/05 02:58:52;;;;;;;6.60;2.80;;;8.80;99.90;;;;;;4848397;29;20048;-96
2021/10/05 03:01:18;;;;;;;8.20;3.22;;;8.80;99.90;;;;;;4850543;29;20057;-96
2021/10/05 03:03:44;;;;;;;4.65;3.45;;;8.80;99.90;;;;;;4855838;29;20044;-96
2021/10/05 03:06:10;;;;;;;4.75;2.85;;;8.80;99.90;;;;;;4877691;29;20083;-95
2021/10/05 03:08:37;;;;;;;3.40;2.55;;;8.80;99.90;;;;;;4868873;29;20041;-96
2021/10/05 03:11:03;;;;;;;4.22;2.90;;;8.80;99.90;;;;;;4862401;29;20049;-96
2021/10/05 03:13:32;;;;;;;4.90;2.95;;;8.80;99.90;;;;;;4848358;29;20382;-96
2021/10/05 03:15:59;;;;;;;17.40;4.45;;;8.80;99.90;;;;;;4866345;29;20144;-96
2021/10/05 03:18:25;;;;;;;7.32;3.28;;;8.80;99.90;;;;;;4863844;29;20064;-96
2021/10/05 03:20:51;;;;;;;7.00;3.08;;;8.80;99.90;;;;;;4847381;29;20049;-95
2021/10/05 03:23:17;;;;;;;5.90;2.97;;;8.80;99.90;;;;;;4863158;29;20489;-93
2021/10/05 03:25:43;;;;;;;7.75;3.22;;;8.80;99.90;;;;;;4847455;29;20099;-96
2021/10/05 03:28:08;;;;;;;9.40;3.38;;;8.80;99.90;;;;;;4863576;29;20045;-96
2021/10/05 03:30:34;;;;;;;6.70;3.22;;;8.80;99.90;;;;;;4848425;29;20080;-96
2021/10/05 03:33:00;;;;;;;11.15;4.13;;;8.80;99.90;;;;;;4863985;29;20053;-94
2021/10/05 03:35:26;;;;;;;4.25;3.38;;;8.80;99.90;;;;;;4847932;29;20180;-94
2021/10/05 03:37:52;;;;;;;7.45;3.25;;;8.80;99.90;;;;;;4869119;29;20052;-96
2021/10/05 03:40:18;;;;;;;8.48;3.35;;;8.80;99.90;;;;;;4845012;29;20536;-95
2021/10/05 03:42:43;;;;;;;3.65;3.35;;;8.90;99.90;;;;;;4841640;29;20075;-96
2021/10/05 03:45:09;;;;;;;6.03;3.53;;;8.80;99.90;;;;;;4875215;29;20052;-96
2021/10/05 03:47:36;;;;;;;7.55;3.38;;;8.80;99.90;;;;;;4846728;29;20053;-96
2021/10/05 03:50:07;;;;;;;5.15;3.75;;;8.80;99.90;;;;;;4846161;29;20057;-95
2021/10/05 03:52:33;;;;;;;13.00;4.13;;;8.80;99.90;;;;;;4846006;29;20076;-95
2021/10/05 03:54:59;;;;;;;4.55;3.63;;;8.80;99.90;;;;;;4846314;29;20091;-94
2021/10/05 03:57:25;;;;;;;4.10;3.70;;;8.80;99.90;;;;;;4863028;29;20057;-94
2021/10/05 03:59:51;;;;;;;5.10;3.90;;;8.80;99.90;;;;;;4854445;29;20167;-95
2021/10/05 04:02:16;;;;;;;4.18;3.38;;;8.70;99.90;;;;;;4862464;29;20045;-95
2021/10/05 04:04:42;;;;;;;11.45;3.90;;;8.70;99.90;;;;;;4846845;29;20052;-94
2021/10/05 04:07:08;;;;;;;8.27;3.63;;;8.70;99.90;;;;;;4862444;29;20057;-94
2021/10/05 04:09:33;;;;;;;7.57;4.80;;;8.70;99.90;;;;;;4831920;29;20045;-94
2021/10/05 04:11:59;;;;;;;7.13;3.30;;;8.70;99.90;;;;;;4859852;29;20054;-94
2021/10/05 04:14:25;;;;;;;8.77;3.97;;;8.70;99.90;;;;;;4861526;29;20065;-94
2021/10/05 04:16:51;;;;;;;4.18;3.78;;;8.70;99.90;;;;;;4828030;29;20057;-95
2021/10/05 04:19:16;;;;;;;5.00;4.00;;;8.70;99.90;;;;;;4843073;29;20056;-94
2021/10/05 04:21:42;;;;;;;4.97;4.18;;;8.70;99.90;;;;;;4849196;29;20099;-94
2021/10/05 04:24:08;;;;;;;6.13;4.03;;;8.70;99.90;;;;;;4867193;29;20501;-96
2021/10/05 04:26:34;;;;;;;7.32;4.05;;;8.70;99.90;;;;;;4845971;29;20097;-93
2021/10/05 04:28:59;;;;;;;6.43;3.92;;;8.70;99.90;;;;;;4851218;29;20057;-94
2021/10/05 04:31:25;;;;;;;7.53;4.18;;;8.70;99.90;;;;;;4861030;29;20045;-95
2021/10/05 04:33:51;;;;;;;11.55;4.30;;;8.70;99.90;;;;;;4830446;29;20339;-92
2021/10/05 04:36:17;;;;;;;5.40;4.43;;;8.70;99.90;;;;;;4863281;29;20537;-95
2021/10/05 04:38:42;;;;;;;7.50;4.70;;;8.70;99.90;;;;;;4841093;29;20152;-94
2021/10/05 04:41:08;;;;;;;6.28;4.50;;;8.70;99.90;;;;;;4853269;29;20056;-96
2021/10/05 04:43:34;;;;;;;10.32;4.20;;;8.70;99.90;;;;;;4845286;29;20406;-96
2021/10/05 04:46:00;;;;;;;7.72;4.72;;;8.60;99.90;;;;;;4869196;29;20076;-93
2021/10/05 04:48:25;;;;;;;9.10;4.60;;;8.70;99.90;;;;;;4861299;29;20488;-95
2021/10/05 04:50:51;;;;;;;11.00;4.72;;;8.70;99.90;;;;;;4845667;29;20057;-96
2021/10/05 04:53:19;;;;;;;12.00;4.88;;;8.70;99.90;;;;;;4847732;29;20051;-96
2021/10/05 04:55:48;;;;;;;7.82;4.50;;;8.70;99.90;;;;;;4848011;29;20456;-96
2021/10/05 04:58:14;;;;;;;6.50;4.53;;;8.70;99.90;;;;;;4861851;29;20071;-95
2021/10/05 05:00:40;;;;;;;10.15;4.50;;;8.60;99.90;;;;;;4860958;29;20052;-94
2021/10/05 05:03:06;;;;;;;8.77;4.68;;;8.70;99.90;;;;;;4851894;29;20125;-95
2021/10/05 05:05:32;;;;;;;8.40;4.43;;;8.70;99.90;;;;;;4861186;29;20128;-95
2021/10/05 05:08:02;;;;;;;7.50;4.63;;;8.70;99.90;;;;;;4850541;29;20124;-96
2021/10/05 05:10:29;;;;;;;7.53;4.85;;;8.70;99.90;;;;;;4851320;29;20076;-96
2021/10/05 05:12:55;;;;;;;8.68;5.63;;;8.70;99.90;;;;;;4876546;29;20152;-95
2021/10/05 05:15:21;;;;;;;9.48;4.65;;;8.60;99.90;;;;;;4862043;29;20061;-95
2021/10/05 05:17:47;;;;;;;6.03;5.05;;;8.60;99.90;;;;;;4845256;29;20049;-93
2021/10/05 05:20:14;;;;;;;6.10;4.38;;;8.70;99.90;;;;;;4845825;29;20060;-95
2021/10/05 05:22:40;;;;;;;7.88;4.30;;;8.70;99.90;;;;;;4845083;29;20053;-95
2021/10/05 05:25:06;;;;;;;5.55;4.28;;;8.70;99.90;;;;;;4845416;29;20049;-95
2021/10/05 05:27:32;;;;;;;5.07;4.55;;;8.70;99.90;;;;;;4845666;29;20049;-94
2021/10/05 05:29:58;;;;;;;10.05;4.63;;;8.60;99.90;;;;;;4844959;29;20049;-94
2021/10/05 05:32:24;;;;;;;10.15;4.53;;;8.50;99.90;;;;;;4845540;29;20450;-95
2021/10/05 05:34:50;;;;;;;19.27;5.15;;;8.50;99.90;;;;;;4860945;29;20045;-96
2021/10/05 05:37:16;;;;;;;8.00;4.45;;;8.50;99.90;;;;;;4846921;29;20084;-96
2021/10/05 05:39:43;;;;;;;8.20;4.95;;;8.40;99.90;;;;;;4846076;29;20064;-95
2021/10/05 05:42:12;;;;;;;12.68;4.95;;;8.40;99.90;;;;;;4861924;29;20055;-95
2021/10/05 05:44:39;;;;;;;5.68;5.00;;;8.40;99.90;;;;;;4861682;29;20057;-96
2021/10/05 05:47:05;;;;;;;5.50;4.97;;;8.30;99.90;;;;;;4846577;29;20057;-96
2021/10/05 05:49:32;;;;;;;9.43;5.13;;;8.30;99.90;;;;;;4846297;29;20141;-93
2021/10/05 05:51:57;;;;;;;12.00;5.78;;;8.30;99.90;;;;;;4876406;29;20108;-96
2021/10/05 05:54:24;;;;;;;9.90;5.15;;;8.30;99.90;;;;;;4844687;29;20049;-94
2021/10/05 05:56:50;;;;;;;5.40;4.88;;;8.20;99.90;;;;;;4845325;29;20117;-96
2021/10/05 05:59:16;;;;;;;6.68;5.18;;;8.30;99.90;;;;;;4831249;29;20107;-95
2021/10/05 06:01:42;;;;;;;9.75;4.85;;;8.30;99.90;;;;;;4814961;29;20560;-96
2021/10/05 06:04:08;;;;;;;8.30;5.20;;;8.30;99.90;;;;;;4846141;29;20505;-95
2021/10/05 06:06:34;;;;;;;9.70;6.97;;;8.30;99.90;;;;;;4845696;29;20041;-96
2021/10/05 06:09:02;;;;;;;7.68;5.32;;;8.30;99.90;;;;;;4830025;29;20053;-95
2021/10/05 06:11:31;;;;;;;9.18;5.40;;;8.30;99.90;;;;;;4861144;29;20045;-95
2021/10/05 06:13:57;;;;;;;6.97;5.03;;;8.40;99.90;;;;;;4879143;29;20068;-95
2021/10/05 06:16:24;;;;;;;9.55;5.50;;;8.40;99.90;;;;;;4849645;29;20064;-94
2021/10/05 06:18:50;;;;;;;8.07;5.93;;;8.40;99.90;;;;;;4848350;29;20401;-96
2021/10/05 06:21:16;;;;;;;7.40;5.88;;;8.40;99.90;;;;;;4849223;29;20049;-96
2021/10/05 06:23:42;;;;;;;6.13;5.63;;;8.40;99.90;;;;;;4864492;29;20052;-94
2021/10/05 06:26:08;;;;;;;6.93;5.13;;;8.40;99.90;;;;;;4832737;29;20057;-95
2021/10/05 06:28:34;;;;;;;6.07;5.35;;;8.40;99.90;;;;;;4851626;29;20097;-96
2021/10/05 06:31:01;;;;;;;7.20;5.35;;;8.40;99.90;;;;;;4848164;29;20649;-95
2021/10/05 06:33:28;;;;;;;6.38;5.53;;;8.40;99.90;;;;;;4849963;29;20057;-94
2021/10/05 06:35:54;;;;;;;10.15;5.30;;;8.50;99.90;;;;;;4841822;29;20042;-95
2021/10/05 06:38:20;;;;;;;10.35;6.30;;;8.50;99.90;;;;;;4863442;29;20045;-95
2021/10/05 06:40:46;;;;;;;7.57;5.55;;;8.50;99.90;;;;;;4852366;29;20851;-94
2021/10/05 06:43:13;;;;;;;9.95;5.50;;;8.50;99.90;;;;;;4848610;29;20053;-95
2021/10/05 06:45:39;;;;;;;6.72;5.95;;;8.50;99.90;;;;;;4847094;29;20053;-93
2021/10/05 06:48:07;;;;;;;9.88;5.57;;;8.50;99.90;;;;;;4866180;29;20049;-93
2021/10/05 06:50:34;;;;;;;11.10;5.72;;;8.60;99.90;;;;;;4830039;29;20065;-93
2021/10/05 06:53:01;;;;;;;12.90;6.07;;;8.60;99.90;;;;;;4839985;29;20763;-95
2021/10/05 06:55:28;;;;;;;10.70;5.53;;;8.70;99.90;;;;;;4846485;29;20061;-95
2021/10/05 06:57:54;;;;;;;6.28;5.63;;;8.70;99.90;;;;;;4863386;29;20140;-93
2021/10/05 07:00:20;;;;;;;11.73;5.50;;;8.70;99.90;;;;;;4847968;29;20475;-93
2021/10/05 07:02:47;;;;;;;8.27;5.93;;;8.80;99.90;;;;;;4863078;29;20057;-95
2021/10/05 07:05:19;;;;;;;10.23;6.30;;;8.90;99.90;;;;;;4854332;29;20049;-96
2021/10/05 07:07:47;;;;;;;7.43;5.30;;;8.90;99.90;;;;;;4847830;29;20049;-95
2021/10/05 07:10:16;;;;;;;9.82;6.40;;;9.00;99.90;;;;;;4850032;29;20532;-95
2021/10/05 07:12:42;;;;;;;7.65;5.85;;;9.00;99.90;;;;;;4848623;29;20061;-93
2021/10/05 07:15:09;;;;;;;11.90;6.47;;;9.10;99.90;;;;;;4857515;29;20136;-89
2021/10/05 07:17:36;;;;;;;11.13;6.57;;;9.20;99.90;;;;;;4836847;29;20053;-95
2021/10/05 07:20:02;;;;;;;9.07;6.30;;;9.20;99.90;;;;;;4849970;29;20152;-94
2021/10/05 07:22:28;;;;;;;9.98;5.68;;;9.30;99.90;;;;;;4863307;29;20182;-95
2021/10/05 07:24:54;;;;;;;7.60;6.20;;;9.30;99.90;;;;;;4835909;29;20508;-93
2021/10/05 07:27:20;;;;;;;8.50;6.00;;;9.40;99.90;;;;;;4864419;29;20458;-94
2021/10/05 07:29:45;;;;;;;8.32;5.80;;;9.40;99.90;;;;;;4843392;29;20108;-91
2021/10/05 07:32:11;;;;;;;12.20;5.72;;;9.40;99.90;;;;;;4867001;29;20108;-96
2021/10/05 07:34:38;;;;;;;9.32;5.57;;;9.40;99.90;;;;;;4866774;29;20056;-95
2021/10/05 07:37:03;;;;;;;8.27;5.85;;;9.50;99.90;;;;;;4871842;29;20057;-96
2021/10/05 07:39:29;;;;;;;10.75;6.38;;;9.50;99.90;;;;;;4865550;29;20143;-96
2021/10/05 07:41:55;;;;;;;7.88;6.00;;;9.50;99.90;;;;;;4870869;29;20492;-96
2021/10/05 07:44:21;;;;;;;6.88;6.20;;;9.50;99.90;;;;;;4874317;29;20037;-96
2021/10/05 07:46:48;;;;;;;10.63;6.57;;;9.50;99.90;;;;;;4868658;29;20049;-95
2021/10/05 07:49:14;;;;;;;7.00;6.28;;;9.50;99.90;;;;;;4866081;29;20052;-96
2021/10/05 07:51:40;;;;;;;10.63;5.80;;;9.50;99.90;;;;;;4867514;29;20117;-96
2021/10/05 07:54:06;;;;;;;7.47;6.55;;;9.50;99.90;;;;;;4854045;29;20052;-95
2021/10/05 07:56:32;;;;;;;8.02;6.50;;;9.60;99.90;;;;;;4869802;29;20123;-96
2021/10/05 07:58:58;;;;;;;9.95;6.35;;;9.60;99.90;;;;;;4844968;29;20092;-96
2021/10/05 08:01:24;;;;;;;6.18;5.68;;;9.60;99.90;;;;;;4849963;29;20496;-96
2021/10/05 08:03:50;;;;;;;8.25;6.40;;;9.60;99.90;;;;;;4832102;29;20139;-95
2021/10/05 08:06:16;;;;;;;8.93;6.20;;;9.60;99.90;;;;;;4851791;29;20129;-96
2021/10/05 08:08:43;;;;;;;7.70;6.85;;;9.60;99.90;;;;;;4874454;29;20056;-96
2021/10/05 08:11:10;;;;;;;8.32;6.10;;;9.60;99.90;;;;;;4862480;29;20079;-96
2021/10/05 08:13:36;;;;;;;8.30;7.03;;;9.60;99.90;;;;;;4867412;29;20109;-96
2021/10/05 08:16:02;;;;;;;9.18;6.50;;;9.60;99.90;;;;;;4850793;29;20041;-96
2021/10/05 08:18:28;;;;;;;9.98;6.68;;;9.70;99.90;;;;;;4849335;29;20049;-96
2021/10/05 08:20:53;;;;;;;8.15;6.90;;;9.80;99.90;;;;;;4859273;29;20100;-96
2021/10/05 08:23:20;;;;;;;7.72;6.32;;;9.80;99.90;;;;;;4863331;29;20557;-96
2021/10/05 08:25:46;;;;;;;11.43;7.00;;;9.90;99.90;;;;;;4855325;29;20666;-96
2021/10/05 08:28:12;;;;;;;19.38;6.20;;;10.00;99.90;;;;;;4868824;29;20124;-96
2021/10/05 08:30:39;;;;;;;12.15;6.90;;;10.10;99.90;;;;;;4870484;29;20571;-96
2021/10/05 08:33:05;;;;;;;16.60;6.28;;;10.10;99.90;;;;;;4849875;29;20049;-96
2021/10/05 08:35:32;;;;;;;10.32;6.65;;;10.20;99.90;;;;;;4856682;29;20068;-96
2021/10/05 08:37:58;;;;;;;9.05;6.47;;;10.30;99.90;;;;;;4865795;29;20041;-96
2021/10/05 08:40:24;;;;;;;11.30;6.82;;;10.40;99.90;;;;;;4848113;29;20052;-95
2021/10/05 08:42:50;;;;;;;10.25;6.47;;;10.60;99.90;;;;;;4855449;29;20049;-94
2021/10/05 08:45:17;;;;;;;7.47;6.03;;;10.70;99.90;;;;;;4850624;29;20048;-96
2021/10/05 08:47:43;;;;;;;9.20;6.32;;;10.90;99.90;;;;;;4863726;29;20489;-96
2021/10/05 08:50:10;;;;;;;8.57;5.90;;;11.10;99.90;;;;;;4856227;29;20068;-96
2021/10/05 08:52:37;;;;;;;7.75;5.43;;;11.20;99.90;;;;;;4817626;29;20055;-96
2021/10/05 08:55:04;;;;;;;7.80;5.35;;;11.20;99.90;;;;;;4835224;29;20053;-95
2021/10/05 08:57:31;;;;;;;9.52;4.97;;;11.30;99.90;;;;;;4851684;29;20056;-95
2021/10/05 08:59:58;;;;;;;9.18;4.90;;;11.30;99.90;;;;;;4857275;29;20412;-96
2021/10/05 09:02:24;;;;;;;7.93;5.28;;;11.30;99.90;;;;;;4867527;29;20494;-96
2021/10/05 09:04:55;;;;;;;5.97;5.38;;;11.30;99.90;;;;;;4849691;29;20045;-96
2021/10/05 09:07:24;;;;;;;7.65;5.22;;;11.40;99.90;;;;;;4838658;29;20045;-95
2021/10/05 09:09:54;;;;;;;6.05;5.43;;;11.40;99.90;;;;;;4849808;29;20068;-96
2021/10/05 09:12:38;;;;;;;6.10;5.28;;;11.50;99.90;;;;;;4863576;29;20049;-96
2021/10/05 09:15:07;;;;;;;7.32;5.78;;;11.50;99.90;;;;;;4864394;29;20057;-96
2021/10/05 09:17:33;;;;;;;11.37;4.97;;;11.60;99.90;;;;;;4850921;29;20053;-96
2021/10/05 09:19:59;;;;;;;6.10;5.40;;;11.70;99.90;;;;;;4871202;29;20139;-96
2021/10/05 09:22:28;;;;;;;8.23;5.05;;;11.70;99.90;;;;;;4871916;29;20051;-94
2021/10/05 09:24:57;;;;;;;5.15;4.60;;;11.90;99.90;;;;;;4874242;29;20049;-95
2021/10/05 09:27:26;;;;;;;5.97;4.70;;;12.10;99.90;;;;;;4863528;29;20053;-96
2021/10/05 09:29:53;;;;;;;7.82;5.05;;;12.40;99.90;;;;;;4849331;29;20060;-96
2021/10/05 09:32:24;;;;;;;5.28;4.50;;;12.60;99.90;;;;;;4852665;29;20080;-96
2021/10/05 09:34:58;;;;;;;7.45;4.10;;;12.80;99.90;;;;;;4864210;29;20063;-96
2021/10/05 09:37:29;;;;;;;6.00;3.80;;;13.00;99.90;;;;;;4854890;29;20044;-94
2021/10/05 09:40:00;;;;;;;4.40;3.83;;;13.20;99.90;;;;;;4846789;29;20048;-93
2021/10/05 09:42:30;;;;;;;4.50;4.10;;;13.50;99.90;;;;;;4861691;29;20544;-95
2021/10/05 09:45:05;;;;;;;4.63;4.05;;;13.60;99.90;;;;;;4861780;29;20047;-94
2021/10/05 09:47:38;;;;;;;6.50;3.97;;;13.80;99.90;;;;;;4862859;29;20124;-96
2021/10/05 09:50:27;;;;;;;8.18;4.07;;;13.90;99.90;;;;;;4850372;29;20093;-95
2021/10/05 09:52:54;;;;;;;7.18;3.60;;;14.10;99.90;;;;;;4865560;29;20548;-96
2021/10/05 09:55:22;;;;;;;3.70;3.35;;;14.30;99.90;;;;;;4861301;29;20049;-94
2021/10/05 09:57:48;;;;;;;11.63;3.40;;;14.40;99.90;;;;;;4837705;29;20057;-94
2021/10/05 10:00:15;;;;;;;3.33;2.75;;;14.50;99.90;;;;;;4849922;29;20320;-94
2021/10/05 10:02:43;;;;;;;5.25;2.70;;;14.70;99.90;;;;;;4867628;29;20049;-96
2021/10/05 10:05:16;;;;;;;4.28;2.67;;;14.80;99.90;;;;;;4862093;29;20056;-95
2021/10/05 10:07:47;;;;;;;3.88;2.83;;;15.00;99.90;;;;;;4880424;29;20048;-95
2021/10/05 10:10:17;;;;;;;3.50;2.13;;;15.10;99.90;;;;;;4846201;29;20057;-96
2021/10/05 10:12:49;;;;;;;3.07;2.63;;;15.30;99.90;;;;;;4890827;29;20071;-91
2021/10/05 10:15:16;;;;;;;3.00;2.15;;;15.40;99.90;;;;;;4862443;29;20056;-92
2021/10/05 10:17:42;;;;;;;3.85;2.03;;;15.40;99.90;;;;;;4847957;29;20505;-94
2021/10/05 10:20:23;;;;;;;3.97;2.72;;;15.40;99.90;;;;;;4861318;29;20053;-91
2021/10/05 10:22:49;;;;;;;2.83;2.00;;;15.50;99.90;;;;;;4848104;29;20049;-90
2021/10/05 10:25:33;;;;;;;2.55;1.90;;;15.50;99.90;;;;;;4860463;29;20051;-92
2021/10/05 10:28:12;;;;;;;1.88;1.30;;;15.50;99.90;;;;;;4847155;29;20512;-92
2021/10/05 10:30:52;;;;;;;3.95;2.10;;;15.60;99.90;;;;;;4864618;29;20064;-93
2021/10/05 10:33:19;;;;;;;;;;;15.70;99.90;;;;;;4861482;29;20068;-92
2021/10/05 10:35:55;;;;;;;2.05;1.55;;;15.70;99.90;;;;;;4878592;29;19972;-94
2021/10/05 10:38:27;;;;;;;3.92;1.20;;;15.80;99.90;;;;;;4861572;29;20040;-95
2021/10/05 10:40:53;;;;;;;2.42;1.77;;;15.80;99.90;;;;;;4861962;29;20401;-95
2021/10/05 10:43:22;;;;;;;3.72;1.70;;;15.90;99.90;;;;;;4855880;29;20127;-94
2021/10/05 10:46:00;;;;;;;6.60;1.70;;;15.90;99.90;;;;;;4846633;29;20049;-95
2021/10/05 10:48:28;;;;;;;2.58;1.63;;;16.00;99.90;;;;;;4861932;29;20045;-93
2021/10/05 10:50:56;;;;;;;3.10;1.60;;;16.10;99.90;;;;;;4864638;29;20049;-93
2021/10/05 10:53:38;;;;;;;4.35;1.55;;;16.20;99.90;;;;;;4859573;29;20049;-91
2021/10/05 10:56:05;;;;;;;1.58;1.45;;;16.30;99.90;;;;;;4861520;29;20049;-91
2021/10/05 10:58:42;;;;;;;8.90;1.70;;;16.50;99.90;;;;;;4859738;29;20056;-94
2021/10/05 11:01:15;;;;;;;2.40;1.00;;;16.60;99.90;;;;;;4863497;29;20932;-93
2021/10/05 11:03:42;;;;;;;4.68;1.52;;;16.60;99.90;;;;;;4847312;29;20180;-95
2021/10/05 11:06:17;;;;;;;3.95;1.50;;;16.60;99.90;;;;;;4859921;29;20076;-94
2021/10/05 11:08:54;;;;;;;5.30;1.52;;;16.60;99.90;;;;;;4861628;29;20049;-94
2021/10/05 11:11:43;;;;;;;2.88;1.77;;;16.70;99.90;;;;;;4844055;29;20515;-93
2021/10/05 11:14:37;;;;;;;1.83;1.60;;;16.80;99.90;;;;;;4862198;29;20060;-94
2021/10/05 11:17:09;;;;;;;2.75;1.83;;;16.90;99.90;;;;;;4851684;29;20089;-94
2021/10/05 11:19:37;;;;;;;5.75;1.55;;;16.90;99.90;;;;;;4867361;29;20548;-94
2021/10/05 11:22:06;;;;;;;2.15;1.30;;;16.90;99.90;;;;;;4870400;29;20048;-94
2021/10/05 11:24:41;;;;;;;4.85;1.60;;;16.90;99.90;;;;;;4851809;29;20048;-94
2021/10/05 11:27:26;;;;;;;2.05;1.10;;;16.80;99.90;;;;;;4851557;29;20092;-92
2021/10/05 11:29:59;;;;;;;4.47;1.65;;;16.80;99.90;;;;;;4850791;29;20123;-93
2021/10/05 11:32:24;;;;;;;1.50;1.40;;;16.80;99.90;;;;;;4881339;29;20088;-94
2021/10/05 11:34:52;;;;;;;1.73;1.40;;;16.80;99.90;;;;;;4863054;29;20079;-94
2021/10/05 11:37:19;;;;;;;3.22;1.15;;;16.70;99.90;;;;;;4860971;29;20044;-94
2021/10/05 11:39:46;;;;;;;2.65;1.23;;;16.70;99.90;;;;;;4846311;29;20052;-94
2021/10/05 11:42:16;;;;;;;2.90;1.33;;;16.80;99.90;;;;;;4861950;29;20128;-94
2021/10/05 11:44:45;;;;;;;4.03;1.23;;;16.80;99.90;;;;;;4849403;29;20048;-93
2021/10/05 11:47:13;;;;;;;2.92;1.40;;;16.70;99.90;;;;;;4860707;29;20049;-92
2021/10/05 11:49:43;;;;;;;3.90;1.20;;;16.80;99.90;;;;;;4845244;29;20497;-95
2021/10/05 11:52:12;;;;;;;2.60;1.60;;;16.90;99.90;;;;;;4860096;29;20072;-91
2021/10/05 11:54:38;;;;;;;3.63;1.15;;;16.90;99.90;;;;;;4860989;29;20064;-93
2021/10/05 11:57:12;;;;;;;2.33;1.48;;;17.00;99.90;;;;;;4871967;29;20128;-93
2021/10/05 11:59:38;;;;;;;1.95;1.20;;;16.90;99.90;;;;;;4867212;29;20040;-91
2021/10/05 12:02:12;;;;;;;1.90;1.10;;;17.00;99.90;;;;;;4861325;29;20056;-93
2021/10/05 12:04:41;;;;;;;3.05;0.95;;;16.90;99.90;;;;;;4861391;29;20057;-91
2021/10/05 12:07:18;;;;;;;2.72;1.10;;;17.00;99.90;;;;;;4860214;29;20049;-93
2021/10/05 12:10:03;;;;;;;2.50;1.33;;;17.00;99.90;;;;;;4854963;29;20041;-93
2021/10/05 12:12:37;;;;;;;1.65;1.05;;;17.10;99.90;;;;;;4857251;29;20432;-93
2021/10/05 12:15:20;;;;;;;4.30;1.20;;;17.10;99.90;;;;;;4860430;29;20053;-94
2021/10/05 12:18:00;;;;;;;5.25;1.10;;;17.20;99.90;;;;;;4860723;29;20471;-91
2021/10/05 12:20:25;;;;;;;1.60;1.30;;;17.20;99.90;;;;;;4866240;29;20512;-95
2021/10/05 12:22:51;;;;;;;1.95;1.02;;;17.30;99.90;;;;;;4865474;29;20044;-93
2021/10/05 12:25:20;;;;;;;2.95;1.50;;;17.40;99.90;;;;;;4860338;29;20085;-93
2021/10/05 12:27:48;;;;;;;3.83;1.25;;;17.40;99.90;;;;;;4863656;29;20559;-93
2021/10/05 12:30:19;;;;;;;2.03;1.00;;;17.50;99.90;;;;;;4863616;29;20055;-92
2021/10/05 12:32:51;;;;;;;3.30;1.60;;;17.50;99.90;;;;;;4852451;29;20041;-93
2021/10/05 12:35:30;;;;;;;1.73;1.10;;;17.60;99.90;;;;;;4866180;29;20052;-93
2021/10/05 12:38:17;;;;;;;1.55;1.20;;;17.70;99.90;;;;;;4868785;29;20128;-94
2021/10/05 12:40:43;;;;;;;3.17;1.00;;;17.70;99.90;;;;;;4860222;29;20061;-92
2021/10/05 12:43:10;;;;;;;9.65;1.08;;;17.80;99.90;;;;;;4868975;29;20057;-93
2021/10/05 12:45:39;;;;;;;5.10;1.10;;;17.90;99.90;;;;;;4859030;29;20107;-93
2021/10/05 12:48:08;;;;;;;3.70;1.23;;;18.00;99.90;;;;;;4860856;29;20123;-94
2021/10/05 12:50:40;;;;;;;3.50;1.13;;;18.20;99.90;;;;;;4866467;29;20613;-94
2021/10/05 12:53:06;;;;;;;6.32;1.20;;;18.20;99.90;;;;;;4864759;29;20056;-94
2021/10/05 12:55:33;;;;;;;4.47;1.10;;;18.30;99.90;;;;;;4859659;29;20059;-94